Time;durP1;ratioP1;P1;durP2;ratioP2;P2;SDS_P1;SDS_P2;PMS_P1;PMS_P2;Temp;Humidity;BMP_temperature;BMP_pressure;BME280_temperature;BME280_humidity;BME280_pressure;Samples;Min_cycle;Max_cycle;Signal;HPM_P1;HPM_P2
2022/11/07 00:02:38;;;;;;;26.20;20.10;;;;;;;2.77;100.00;99521.14;435232;1283;143038;-64
2022/11/07 00:12:44;;;;;;;28.10;19.60;;;;;;;2.73;100.00;99514.88;436025;1289;143753;-64
2022/11/07 00:22:50;;;;;;;26.80;19.30;;;;;;;2.73;100.00;99510.73;436017;1285;142085;-64
2022/11/07 00:32:56;;;;;;;27.50;19.10;;;;;;;3.00;100.00;99514.84;435237;1282;143772;-64
2022/11/07 00:43:04;;;;;;;31.10;20.20;;;;;;;3.28;100.00;99519.77;435993;1284;145238;-64
2022/11/07 00:53:10;;;;;;;35.70;21.20;;;;;;;3.43;100.00;99508.73;436013;1281;143147;-64
2022/11/07 01:13:40;;;;;;;38.30;21.60;;;;;;;3.84;100.00;99469.30;436073;1284;142613;-64
2022/11/07 01:23:45;;;;;;;37.00;20.60;;;;;;;4.09;100.00;99461.59;435261;1289;143476;-64
2022/11/07 01:33:51;;;;;;;35.50;21.60;;;;;;;4.27;100.00;99443.70;436036;1284;142914;-65
2022/11/07 01:44:00;;;;;;;25.10;18.10;;;;;;;4.41;100.00;99429.31;436003;1285;143111;-65
2022/11/07 01:54:07;;;;;;;28.80;18.90;;;;;;;4.50;100.00;99412.27;435284;1284;142556;-64
2022/11/07 02:04:13;;;;;;;29.70;19.80;;;;;;;4.57;100.00;99397.80;435946;1277;143173;-65
2022/11/07 02:14:19;;;;;;;28.90;18.80;;;;;;;4.63;100.00;99391.11;435939;1283;142900;-65
2022/11/07 02:24:30;;;;;;;23.40;15.60;;;;;;;4.74;100.00;99382.15;435262;1285;142474;-63
2022/11/07 02:34:35;;;;;;;23.90;16.00;;;;;;;4.88;100.00;99375.99;435910;1283;143241;-63
2022/11/07 02:44:41;;;;;;;25.60;17.50;;;;;;;5.02;100.00;99365.67;435216;1284;145949;-63
2022/11/07 02:54:46;;;;;;;28.70;17.20;;;;;;;5.16;100.00;99353.61;435987;1277;143360;-63
2022/11/07 03:04:52;;;;;;;31.00;21.50;;;;;;;5.29;100.00;99346.60;435995;1283;141807;-63
2022/11/07 03:14:58;;;;;;;37.10;23.10;;;;;;;5.39;100.00;99349.07;435268;1284;145192;-64
2022/11/07 03:25:04;;;;;;;29.40;19.00;;;;;;;5.49;100.00;99351.91;436065;1284;142971;-64
2022/11/07 03:35:11;;;;;;;31.20;19.90;;;;;;;5.61;100.00;99360.40;435931;1283;143178;-64
2022/11/07 03:45:17;;;;;;;29.00;20.20;;;;;;;5.70;100.00;99359.95;435242;1285;142470;-64
2022/11/07 03:55:23;;;;;;;29.40;18.80;;;;;;;5.80;100.00;99352.89;435985;1283;141986;-64
2022/11/07 04:05:29;;;;;;;32.20;20.50;;;;;;;5.88;100.00;99323.53;434995;1283;142909;-65
2022/11/07 04:36:21;;;;;;;31.70;20.10;;;;;;;5.24;100.00;99319.05;435063;1278;144016;-65
2022/11/07 04:46:27;;;;;;;28.90;20.90;;;;;;;5.13;100.00;99312.28;435485;1284;142486;-65
2022/11/07 04:56:32;;;;;;;32.30;18.30;;;;;;;5.05;100.00;99311.41;433640;1284;151771;-65
2022/11/07 05:06:39;;;;;;;34.70;21.90;;;;;;;5.00;100.00;99310.21;435899;1281;142715;-64
2022/11/07 05:16:44;;;;;;;32.50;18.90;;;;;;;5.00;100.00;99308.70;435983;1281;186521;-63
2022/11/07 05:26:50;;;;;;;34.90;18.70;;;;;;;4.98;100.00;99311.89;435186;1283;142246;-64
2022/11/07 05:36:56;;;;;;;31.40;20.80;;;;;;;4.92;100.00;99311.31;435674;1278;144195;-64
2022/11/07 05:47:01;;;;;;;30.00;20.60;;;;;;;4.95;100.00;99310.14;435869;1284;144834;-64
2022/11/07 05:57:07;;;;;;;33.50;20.20;;;;;;;4.94;100.00;99324.73;435296;1291;143264;-64
2022/11/07 06:07:13;;;;;;;32.40;21.30;;;;;;;4.92;100.00;99332.28;435897;1278;142642;-64
2022/11/07 06:17:18;;;;;;;32.50;20.80;;;;;;;5.09;100.00;99336.91;435841;1284;142664;-64
2022/11/07 06:27:24;;;;;;;37.80;24.80;;;;;;;5.38;100.00;99338.38;435189;1283;142993;-64
2022/11/07 06:37:29;;;;;;;24.70;17.70;;;;;;;5.73;100.00;99350.10;435852;1284;142170;-63
2022/11/07 06:47:35;;;;;;;24.40;16.30;;;;;;;6.19;100.00;99352.45;434914;1283;142447;-64
2022/11/07 06:57:40;;;;;;;26.30;17.70;;;;;;;6.71;100.00;99360.98;435818;1284;167984;-64
2022/11/07 07:07:46;;;;;;;21.20;15.90;;;;;;;7.19;100.00;99361.60;435789;1285;141913;-64
2022/11/07 07:17:52;;;;;;;20.20;15.50;;;;;;;7.91;100.00;99363.92;435195;1284;142837;-65
2022/11/07 07:27:57;;;;;;;18.20;13.60;;;;;;;8.83;100.00;99360.61;435971;1283;143263;-64
2022/11/07 07:38:03;;;;;;;19.60;14.40;;;;;;;9.36;100.00;99359.97;435944;1283;142379;-65
2022/11/07 07:48:09;;;;;;;16.70;13.10;;;;;;;9.56;100.00;99354.04;435187;1268;142527;-64
2022/11/07 07:58:15;;;;;;;16.70;12.20;;;;;;;9.42;99.65;99347.56;435938;1277;142184;-64
2022/11/07 08:08:21;;;;;;;17.40;12.40;;;;;;;9.13;99.12;99355.81;435952;1277;142656;-64
2022/11/07 08:18:26;;;;;;;15.20;12.80;;;;;;;8.86;98.76;99369.98;435176;1283;142792;-64
2022/11/07 08:28:34;;;;;;;20.70;13.20;;;;;;;8.77;98.67;99379.42;435983;1284;143893;-64
2022/11/07 08:38:39;;;;;;;21.10;13.00;;;;;;;8.84;98.00;99382.88;435196;1290;143706;-63
2022/11/07 08:48:45;;;;;;;18.10;13.20;;;;;;;9.03;97.21;99383.66;435900;1284;143063;-65
2022/11/07 08:58:51;;;;;;;20.40;13.10;;;;;;;9.28;96.45;99381.10;435755;1286;142178;-64
2022/11/07 09:08:57;;;;;;;15.60;11.10;;;;;;;9.33;95.34;99393.33;435186;1283;142256;-64
2022/11/07 09:19:02;;;;;;;13.50;11.70;;;;;;;9.42;94.87;99395.22;435963;1281;141508;-63
2022/11/07 09:29:32;;;;;;;12.60;9.60;;;;;;;9.59;93.96;99395.30;435951;1277;142375;-64
2022/11/07 09:39:41;;;;;;;13.30;8.90;;;;;;;9.53;92.89;99393.69;435434;1282;142625;-63
2022/11/07 09:49:50;;;;;;;10.80;8.20;;;;;;;9.62;92.19;99398.06;435937;1283;143116;-64
2022/11/07 09:59:58;;;;;;;12.10;8.70;;;;;;;9.71;91.22;99399.42;435162;1283;142807;-64
2022/11/07 10:10:13;;;;;;;13.00;9.00;;;;;;;9.73;90.43;99403.45;435989;1284;141423;-64
2022/11/07 10:20:32;;;;;;;10.90;8.60;;;;;;;9.95;89.34;99395.05;435938;1284;142803;-63
2022/11/07 10:30:38;;;;;;;12.20;7.80;;;;;;;10.09;88.41;99393.34;435524;1291;143906;-64
2022/11/07 10:40:45;;;;;;;11.30;10.10;;;;;;;10.16;87.66;99400.38;435974;1285;142771;-64
2022/11/07 10:50:55;;;;;;;7.90;6.80;;;;;;;10.21;86.91;99396.17;435183;1283;195790;-64
2022/11/07 11:01:06;;;;;;;11.00;7.10;;;;;;;10.28;86.50;99389.11;435965;1284;142347;-63
2022/11/07 11:11:27;;;;;;;8.30;7.00;;;;;;;10.41;85.67;99391.08;435970;1284;143596;-65
2022/11/07 11:21:45;;;;;;;11.80;6.50;;;;;;;10.86;85.10;99392.80;435520;1277;142875;-65
2022/11/07 11:31:55;;;;;;;7.90;7.10;;;;;;;11.30;84.01;99399.41;421374;1284;142921;-64
2022/11/07 11:42:03;;;;;;;7.80;6.60;;;;;;;11.15;83.20;99406.23;419264;1277;143249;-63
2022/11/07 11:52:15;;;;;;;10.00;6.60;;;;;;;10.88;83.04;99412.08;435889;1284;143408;-65
2022/11/07 12:02:40;;;;;;;13.90;7.40;;;;;;;10.43;83.15;99409.32;435930;1284;143481;-64
2022/11/07 12:13:01;;;;;;;9.60;6.00;;;;;;;10.14;83.08;99411.02;435613;1284;212121;-64
2022/11/07 12:23:25;;;;;;;13.90;6.80;;;;;;;9.97;83.10;99415.73;435885;1289;143289;-63
2022/11/07 12:33:37;;;;;;;7.00;5.40;;;;;;;9.74;83.20;99418.79;435481;1284;197596;-64
2022/11/07 12:43:55;;;;;;;5.20;4.60;;;;;;;9.44;83.35;99422.39;435917;1285;143344;-64
2022/11/07 12:54:09;;;;;;;10.90;6.60;;;;;;;9.40;83.64;99418.63;435160;1291;145495;-64
2022/11/07 13:04:28;;;;;;;9.30;6.50;;;;;;;9.42;84.02;99424.61;435895;1284;142480;-65
2022/11/07 13:14:37;;;;;;;12.90;6.20;;;;;;;9.32;83.94;99436.61;435215;1281;163050;-65
2022/11/07 13:24:53;;;;;;;10.30;7.20;;;;;;;9.26;84.26;99441.16;435907;1289;142548;-64
2022/11/07 13:35:01;;;;;;;7.90;6.80;;;;;;;9.14;84.43;99445.70;435934;1290;143690;-64
2022/11/07 13:45:24;;;;;;;10.10;7.00;;;;;;;9.06;84.93;99456.98;435196;1284;141847;-64
2022/11/07 13:55:41;;;;;;;11.70;7.40;;;;;;;9.06;85.29;99459.79;435896;1289;143325;-64
2022/11/07 14:05:49;;;;;;;12.00;7.50;;;;;;;9.00;85.43;99469.77;435236;1284;142938;-63
2022/11/07 14:15:54;;;;;;;;;;;;;;;8.88;85.68;99477.80;435932;1289;142977;-64
2022/11/07 14:26:02;;;;;;;16.60;8.80;;;;;;;8.77;86.02;99471.77;436169;1284;182945;-64
2022/11/07 14:36:12;;;;;;;10.40;6.80;;;;;;;8.67;86.40;99477.92;435133;1283;144989;-64
2022/11/07 14:46:22;;;;;;;11.20;8.40;;;;;;;8.59;86.78;99483.95;422245;1281;143075;-64
2022/11/07 14:56:32;;;;;;;11.00;8.10;;;;;;;8.48;87.21;99483.88;435935;1284;142969;-65
2022/11/07 15:06:44;;;;;;;15.20;10.10;;;;;;;8.43;87.33;99489.19;435522;1283;197291;-64
2022/11/07 15:16:52;;;;;;;12.50;10.10;;;;;;;8.40;87.70;99486.55;435995;1284;143939;-65
2022/11/07 15:27:02;;;;;;;11.60;8.40;;;;;;;8.37;87.77;99490.94;435339;1277;142572;-64
2022/11/07 15:37:14;;;;;;;11.60;8.90;;;;;;;8.35;87.81;99499.25;435778;1284;143700;-64
2022/11/07 15:47:22;;;;;;;16.90;10.80;;;;;;;8.24;87.85;99509.11;435611;1285;142374;-65
2022/11/07 15:57:27;;;;;;;16.40;10.00;;;;;;;7.94;87.95;99509.02;434981;1284;142553;-64
2022/11/07 16:07:33;;;;;;;16.80;13.40;;;;;;;7.79;88.57;99506.79;435829;1281;143963;-63
2022/11/07 16:17:39;;;;;;;13.60;11.10;;;;;;;7.74;88.65;99511.11;435035;1289;142170;-65
2022/11/07 16:27:50;;;;;;;19.10;14.50;;;;;;;7.74;89.01;99519.33;435700;1288;141948;-64
2022/11/07 16:37:58;;;;;;;24.20;14.60;;;;;;;7.77;89.14;99520.84;435601;1283;141771;-63
2022/11/07 16:48:05;;;;;;;21.80;13.50;;;;;;;7.80;89.29;99529.27;435119;1288;143530;-64
2022/11/07 16:58:24;;;;;;;22.90;17.60;;;;;;;7.83;89.26;99532.02;435822;1283;200882;-64
2022/11/07 17:08:35;;;;;;;25.50;15.80;;;;;;;7.88;89.47;99533.02;435286;1291;143779;-63
2022/11/07 17:18:42;;;;;;;23.50;19.00;;;;;;;7.92;89.67;99530.02;435943;1284;143952;-64
2022/11/07 17:28:47;;;;;;;20.30;15.80;;;;;;;7.95;89.54;99519.05;435980;1283;144501;-64
2022/11/07 17:38:53;;;;;;;18.80;13.30;;;;;;;7.99;89.72;99520.55;435262;1276;143365;-63
2022/11/07 17:49:02;;;;;;;20.70;12.90;;;;;;;8.05;89.64;99520.43;435973;1284;142627;-62
2022/11/07 17:59:11;;;;;;;43.60;22.30;;;;;;;8.07;89.57;99518.89;435998;1288;143092;-63
2022/11/07 18:09:17;;;;;;;20.60;12.90;;;;;;;8.02;89.47;99513.41;435250;1283;143171;-64
2022/11/07 18:19:22;;;;;;;19.60;14.50;;;;;;;7.70;89.38;99519.30;435986;1290;141642;-63
2022/11/07 18:29:28;;;;;;;27.70;19.80;;;;;;;7.32;89.86;99521.98;436028;1288;142580;-63
2022/11/07 18:39:34;;;;;;;35.00;22.10;;;;;;;7.05;90.39;99525.94;435555;1278;210755;-64
2022/11/07 18:49:40;;;;;;;46.90;28.70;;;;;;;6.98;90.89;99533.28;435823;1283;167273;-64
2022/11/07 18:59:46;;;;;;;46.30;26.50;;;;;;;6.85;91.00;99533.75;435197;1280;142315;-65
2022/11/07 19:09:51;;;;;;;29.60;20.30;;;;;;;6.58;91.33;99534.86;427549;1285;141919;-62
2022/11/07 19:19:57;;;;;;;35.60;25.60;;;;;;;6.29;91.77;99534.14;436010;1284;142778;-64
2022/11/07 19:30:03;;;;;;;29.40;21.30;;;;;;;6.01;92.36;99534.18;435235;1277;143124;-64
2022/11/07 19:40:10;;;;;;;37.60;23.50;;;;;;;5.81;92.75;99543.40;435987;1284;142377;-64
2022/11/07 19:50:16;;;;;;;39.60;26.80;;;;;;;5.63;93.16;99551.01;435848;1284;142938;-63
2022/11/07 20:00:24;;;;;;;42.20;27.00;;;;;;;5.38;93.44;99562.98;435124;1276;143485;-64
2022/11/07 20:10:30;;;;;;;43.60;27.20;;;;;;;5.32;94.15;99567.94;436001;1285;143084;-63
2022/11/07 20:20:36;;;;;;;43.30;26.40;;;;;;;5.17;94.19;99567.86;435180;1283;144625;-64
2022/11/07 20:30:43;;;;;;;31.20;24.00;;;;;;;5.08;94.89;99568.08;435907;1285;142941;-64
2022/11/07 20:40:49;;;;;;;21.70;16.80;;;;;;;5.36;95.88;99575.59;435890;1283;142758;-63
2022/11/07 20:51:10;;;;;;;25.20;19.00;;;;;;;5.62;95.78;99567.73;435032;1285;163678;-63
2022/11/07 21:01:19;;;;;;;17.40;12.90;;;;;;;5.87;95.97;99568.54;435830;1283;143100;-64
2022/11/07 21:11:26;;;;;;;19.20;14.60;;;;;;;6.16;95.84;99567.94;435972;1283;142301;-64
2022/11/07 21:21:33;;;;;;;18.40;14.50;;;;;;;6.33;95.83;99567.66;435400;1283;210978;-63
2022/11/07 21:31:40;;;;;;;22.90;16.10;;;;;;;6.34;95.32;99566.61;435869;1284;143947;-64
2022/11/07 21:41:46;;;;;;;18.50;15.60;;;;;;;6.28;95.49;99571.55;435007;1284;143567;-63
2022/11/07 21:51:52;;;;;;;24.00;19.30;;;;;;;6.35;95.67;99575.73;435889;1284;142769;-64
2022/11/07 22:01:58;;;;;;;28.90;21.30;;;;;;;6.49;95.41;99575.63;435725;1277;141537;-64
2022/11/07 22:12:04;;;;;;;21.20;18.90;;;;;;;6.58;95.40;99576.23;428304;1285;142420;-63
2022/11/07 22:22:10;;;;;;;17.60;15.50;;;;;;;6.62;95.40;99578.15;435839;1280;145299;-64
2022/11/07 22:32:16;;;;;;;20.10;14.60;;;;;;;6.62;95.33;99571.38;435863;1291;142749;-64
2022/11/07 22:42:21;;;;;;;17.70;14.10;;;;;;;6.66;95.35;99569.59;434970;1290;142485;-64
2022/11/07 22:52:28;;;;;;;24.30;17.20;;;;;;;6.67;95.31;99573.58;435872;1283;143761;-63
2022/11/07 23:02:34;;;;;;;21.40;14.00;;;;;;;6.74;95.33;99585.07;435116;1285;165734;-64
2022/11/07 23:12:40;;;;;;;16.50;13.30;;;;;;;6.84;95.36;99580.39;435767;1283;142644;-64
2022/11/07 23:22:45;;;;;;;21.30;15.40;;;;;;;6.92;95.19;99577.23;435876;1277;144908;-64
2022/11/07 23:32:51;;;;;;;16.60;13.60;;;;;;;6.99;95.28;99577.23;435103;1283;143288;-64
2022/11/07 23:42:57;;;;;;;16.80;12.90;;;;;;;7.04;95.13;99574.58;435960;1284;142321;-64
2022/11/07 23:55:35;;;;;;;14.80;12.90;;;;;;;7.05;95.06;99572.98;435979;1283;145404;-67
